createdAt,value
2019-03-10T00:01:57.105Z,87.40
2019-03-10T00:04:23.354Z,88.30
2019-03-10T00:06:49.578Z,88.00
2019-03-10T00:09:15.826Z,88.00
2019-03-10T00:11:42.039Z,88.20
2019-03-10T00:14:08.353Z,88.20
2019-03-10T00:16:34.589Z,88.40
2019-03-10T00:19:00.801Z,88.30
2019-03-10T00:21:27.021Z,88.00
2019-03-10T00:23:53.315Z,88.10
2019-03-10T00:26:21.044Z,88.60
2019-03-10T00:28:47.502Z,89.10
2019-03-10T00:31:13.738Z,88.90
2019-03-10T00:33:39.948Z,88.30
2019-03-10T00:36:06.169Z,88.40
2019-03-10T00:38:42.112Z,88.20
2019-03-10T00:41:18.104Z,89.70
2019-03-10T00:44:20.437Z,88.20
2019-03-10T00:47:23.813Z,86.80
2019-03-10T00:50:09.085Z,86.30
2019-03-10T00:52:41.797Z,86.60
2019-03-10T00:55:08.013Z,86.80
2019-03-10T00:57:34.265Z,86.70
2019-03-10T01:00:01.005Z,86.80
2019-03-10T01:02:27.505Z,86.80
2019-03-10T01:04:53.853Z,86.80
2019-03-10T01:07:20.173Z,86.80
2019-03-10T01:09:46.510Z,87.00
2019-03-10T01:12:12.883Z,86.80
2019-03-10T01:14:39.136Z,86.50
2019-03-10T01:17:05.756Z,86.10
2019-03-10T01:19:32.097Z,86.30
2019-03-10T01:21:58.809Z,86.00
2019-03-10T01:24:25.020Z,85.80
2019-03-10T01:26:51.259Z,85.90
2019-03-10T01:29:18.564Z,86.00
2019-03-10T01:32:06.854Z,86.30
2019-03-10T01:34:45.537Z,86.40
2019-03-10T01:37:11.868Z,87.10
2019-03-10T01:39:38.158Z,86.00
2019-03-10T01:42:04.378Z,85.80
2019-03-10T01:44:30.686Z,85.70
2019-03-10T01:46:56.897Z,85.40
2019-03-10T01:49:23.110Z,85.30
2019-03-10T01:51:49.368Z,86.10
2019-03-10T01:54:15.623Z,86.70
2019-03-10T01:56:42.004Z,86.90
2019-03-10T01:59:08.245Z,86.90
2019-03-10T02:01:34.487Z,86.60
2019-03-10T02:04:00.761Z,86.50
2019-03-10T02:06:27.081Z,86.40
2019-03-10T02:08:53.297Z,86.70
2019-03-10T02:11:19.508Z,88.90
2019-03-10T02:13:45.753Z,89.30
2019-03-10T02:16:12.057Z,87.80
2019-03-10T02:18:38.277Z,86.80
2019-03-10T02:21:04.513Z,85.80
2019-03-10T02:23:30.749Z,85.60
2019-03-10T02:25:56.973Z,85.70
2019-03-10T02:28:23.316Z,86.50
2019-03-10T02:30:49.527Z,85.60
2019-03-10T02:33:15.742Z,85.40
2019-03-10T02:35:42.081Z,85.60
2019-03-10T02:38:08.363Z,86.20
2019-03-10T02:40:34.586Z,86.80
2019-03-10T02:43:00.832Z,87.30
2019-03-10T02:45:27.045Z,86.60
2019-03-10T02:47:53.270Z,86.30
2019-03-10T02:50:19.511Z,86.40
2019-03-10T02:52:45.837Z,86.30
2019-03-10T02:55:12.072Z,86.30
2019-03-10T02:57:38.416Z,86.10
2019-03-10T03:00:08.225Z,85.70
2019-03-10T03:02:34.538Z,85.80
2019-03-10T03:05:00.779Z,85.70
2019-03-10T03:07:27.085Z,86.10
2019-03-10T03:09:53.315Z,86.30
2019-03-10T03:12:19.651Z,87.10
2019-03-10T03:14:48.718Z,87.20
2019-03-10T03:17:15.008Z,87.20
2019-03-10T03:19:41.282Z,87.20
2019-03-10T03:22:07.500Z,86.90
2019-03-10T03:24:33.821Z,86.90
2019-03-10T03:27:02.575Z,87.50
2019-03-10T03:29:28.234Z,87.80
2019-03-10T03:31:54.446Z,87.80
2019-03-10T03:34:20.802Z,87.60
2019-03-10T03:36:47.090Z,87.00
2019-03-10T03:39:20.054Z,86.90
2019-03-10T03:41:46.482Z,87.20
2019-03-10T03:44:12.793Z,87.00
2019-03-10T03:46:39.058Z,86.70
2019-03-10T03:49:05.465Z,86.70
2019-03-10T03:51:31.753Z,86.60
2019-03-10T03:53:57.973Z,86.70
2019-03-10T03:56:24.220Z,86.80
2019-03-10T03:58:50.437Z,86.90
2019-03-10T04:01:24.438Z,87.20
2019-03-10T04:03:50.738Z,87.30
2019-03-10T04:06:16.980Z,87.40
2019-03-10T04:08:43.306Z,87.40
2019-03-10T04:11:09.724Z,86.60
2019-03-10T04:13:36.036Z,87.30
2019-03-10T04:16:02.395Z,87.70
2019-03-10T04:18:28.693Z,87.90
2019-03-10T04:20:54.913Z,87.70
2019-03-10T04:23:21.326Z,87.30
2019-03-10T04:25:47.559Z,87.60
2019-03-10T04:28:13.969Z,87.40
2019-03-10T04:30:40.209Z,87.50
2019-03-10T04:33:06.425Z,87.60
2019-03-10T04:35:32.653Z,87.50
2019-03-10T04:37:58.897Z,87.50
2019-03-10T04:40:25.176Z,87.60
2019-03-10T04:42:51.399Z,87.20
2019-03-10T04:45:17.808Z,87.70
2019-03-10T04:47:44.014Z,88.70
2019-03-10T04:50:10.241Z,89.20
2019-03-10T04:52:36.485Z,89.00
2019-03-10T04:55:10.228Z,89.00
2019-03-10T04:57:36.449Z,88.80
2019-03-10T05:00:04.966Z,88.70
2019-03-10T05:02:31.172Z,88.50
2019-03-10T05:04:57.402Z,88.40
2019-03-10T05:07:23.814Z,88.80
2019-03-10T05:09:50.040Z,89.20
2019-03-10T05:12:16.345Z,89.40
2019-03-10T05:14:42.667Z,88.30
2019-03-10T05:17:08.969Z,89.00
2019-03-10T05:19:35.281Z,88.20
2019-03-10T05:22:01.601Z,87.90
2019-03-10T05:24:27.825Z,88.50
2019-03-10T05:26:54.046Z,87.30
2019-03-10T05:29:20.394Z,87.60
2019-03-10T05:31:46.696Z,86.40
2019-03-10T05:34:12.918Z,86.30
2019-03-10T05:36:39.225Z,86.30
2019-03-10T05:39:05.636Z,86.20
2019-03-10T05:41:32.029Z,86.80
2019-03-10T05:43:58.893Z,86.50
2019-03-10T05:46:25.188Z,85.50
2019-03-10T05:48:51.401Z,85.40
2019-03-10T05:51:17.725Z,85.30
2019-03-10T05:53:44.030Z,86.00
2019-03-10T05:56:10.253Z,86.40
2019-03-10T05:58:36.662Z,87.30
2019-03-10T06:01:02.870Z,86.70
2019-03-10T06:03:29.077Z,86.30
2019-03-10T06:05:55.317Z,86.30
2019-03-10T06:08:21.534Z,86.00
2019-03-10T06:10:47.842Z,86.00
2019-03-10T06:13:14.165Z,86.20
2019-03-10T06:15:40.386Z,86.50
2019-03-10T06:18:13.425Z,86.50
2019-03-10T06:20:34.700Z,85.70
2019-03-10T06:23:00.913Z,84.80
2019-03-10T06:25:27.126Z,84.70
2019-03-10T06:27:53.349Z,84.50
2019-03-10T06:30:19.558Z,84.40
2019-03-10T06:32:45.789Z,84.10
2019-03-10T06:35:12.025Z,83.90
2019-03-10T06:37:38.236Z,83.70
2019-03-10T06:40:06.242Z,83.90
2019-03-10T06:42:32.420Z,83.90
2019-03-10T06:44:58.625Z,83.70
2019-03-10T06:47:24.933Z,83.80
2019-03-10T06:49:51.244Z,84.50
2019-03-10T06:52:17.457Z,84.30
2019-03-10T06:54:43.667Z,83.00
2019-03-10T06:57:10.024Z,81.70
2019-03-10T06:59:36.300Z,79.90
2019-03-10T07:02:02.622Z,78.30
2019-03-10T07:04:28.881Z,77.20
2019-03-10T07:06:55.181Z,76.90
2019-03-10T07:09:21.401Z,76.50
2019-03-10T07:11:47.644Z,73.50
2019-03-10T07:14:13.869Z,73.30
2019-03-10T07:16:40.077Z,72.80
2019-03-10T07:19:06.317Z,73.60
2019-03-10T07:21:32.545Z,69.90
2019-03-10T07:23:58.853Z,68.30
2019-03-10T07:26:25.092Z,68.70
2019-03-10T07:28:56.241Z,69.60
2019-03-10T07:31:33.249Z,70.50
2019-03-10T07:34:10.185Z,70.70
2019-03-10T07:36:44.101Z,70.70
2019-03-10T07:39:13.841Z,71.10
2019-03-10T07:41:51.382Z,71.30
2019-03-10T07:44:22.799Z,71.30
2019-03-10T07:46:50.900Z,71.60
2019-03-10T07:49:18.998Z,71.50
2019-03-10T07:51:57.271Z,71.70
2019-03-10T07:54:25.492Z,71.70
2019-03-10T07:56:56.374Z,71.20
2019-03-10T07:59:27.457Z,71.40
2019-03-10T08:01:58.353Z,70.80
2019-03-10T08:04:35.441Z,69.90
2019-03-10T08:07:21.746Z,69.80
2019-03-10T08:09:52.861Z,70.20
2019-03-10T08:12:27.015Z,70.50
2019-03-10T08:14:55.407Z,70.10
2019-03-10T08:17:26.336Z,71.20
2019-03-10T08:19:54.457Z,70.90
2019-03-10T08:22:25.328Z,69.50
2019-03-10T08:24:56.465Z,65.20
2019-03-10T08:27:39.952Z,63.10
2019-03-10T08:30:18.878Z,62.40
2019-03-10T08:32:53.091Z,61.30
2019-03-10T08:35:21.301Z,61.50
2019-03-10T08:37:51.937Z,60.10
2019-03-10T08:40:23.388Z,59.80
2019-03-10T08:42:51.513Z,60.00
2019-03-10T08:45:36.098Z,61.40
2019-03-10T08:48:10.597Z,61.50
2019-03-10T08:50:39.337Z,61.30
2019-03-10T08:53:10.237Z,60.80
2019-03-10T08:55:41.160Z,60.70
2019-03-10T08:58:11.810Z,61.50
2019-03-10T09:00:39.949Z,62.00
2019-03-10T09:03:07.968Z,62.90
2019-03-10T09:05:52.504Z,62.60
2019-03-10T09:08:23.529Z,62.70
2019-03-10T09:10:51.649Z,61.70
2019-03-10T09:13:22.333Z,62.70
2019-03-10T09:16:06.082Z,63.10
2019-03-10T09:18:50.866Z,61.20
2019-03-10T09:21:19.197Z,60.00
2019-03-10T09:23:50.365Z,59.40
2019-03-10T09:26:34.814Z,59.30
2019-03-10T09:29:08.787Z,60.50
2019-03-10T09:31:39.931Z,60.30
2019-03-10T09:34:13.965Z,58.90
2019-03-10T09:36:44.905Z,58.80
2019-03-10T09:39:21.913Z,56.50
2019-03-10T09:42:07.144Z,55.30
2019-03-10T09:44:37.769Z,54.50
2019-03-10T09:47:06.125Z,54.90
2019-03-10T09:49:49.517Z,52.70
2019-03-10T09:52:35.628Z,52.20
2019-03-10T09:55:18.924Z,54.20
2019-03-10T09:57:59.202Z,53.30
2019-03-10T10:00:32.516Z,54.10
2019-03-10T10:03:07.097Z,53.40
2019-03-10T10:05:55.366Z,51.40
2019-03-10T10:08:26.725Z,51.00
2019-03-10T10:11:07.477Z,51.20
2019-03-10T10:13:52.790Z,51.00
2019-03-10T10:16:25.167Z,51.00
2019-03-10T10:19:04.597Z,51.40
2019-03-10T10:21:44.222Z,51.40
2019-03-10T10:24:12.872Z,48.80
2019-03-10T10:26:51.153Z,47.30
2019-03-10T10:29:22.638Z,48.40
2019-03-10T10:32:09.270Z,49.00
2019-03-10T10:34:52.297Z,48.30
2019-03-10T10:37:26.234Z,45.80
2019-03-10T10:40:06.550Z,45.00
2019-03-10T10:42:43.879Z,44.40
2019-03-10T10:45:27.435Z,45.10
2019-03-10T10:48:02.640Z,43.70
2019-03-10T10:50:33.911Z,43.80
2019-03-10T10:53:02.179Z,45.90
2019-03-10T10:55:36.285Z,45.80
2019-03-10T10:58:13.826Z,45.70
2019-03-10T11:00:42.097Z,44.70
2019-03-10T11:03:28.705Z,44.70
2019-03-10T11:05:56.941Z,47.20
2019-03-10T11:08:27.943Z,45.30
2019-03-10T11:10:56.197Z,43.10
2019-03-10T11:13:41.510Z,42.50
2019-03-10T11:16:12.469Z,44.50
2019-03-10T11:18:40.599Z,45.00
2019-03-10T11:24:08.386Z,42.30
2019-03-10T11:26:36.521Z,41.10
2019-03-10T11:29:13.430Z,40.30
2019-03-10T11:31:58.081Z,41.50
2019-03-10T11:34:26.198Z,42.70
2019-03-10T11:37:11.355Z,42.10
2019-03-10T11:39:45.517Z,42.00
2019-03-10T11:42:25.498Z,43.00
2019-03-10T11:45:02.887Z,39.70
2019-03-10T11:47:32.333Z,40.00
2019-03-10T11:50:09.096Z,39.10
2019-03-10T11:52:37.242Z,37.60
2019-03-10T11:55:07.571Z,37.70
2019-03-10T11:57:35.773Z,40.00
2019-03-10T12:00:08.828Z,40.10
2019-03-10T12:02:42.975Z,39.20
2019-03-10T12:05:14.703Z,38.90
2019-03-10T12:07:59.441Z,39.30
2019-03-10T12:10:25.682Z,39.30
2019-03-10T12:12:52.009Z,40.00
2019-03-10T12:15:18.453Z,40.80
2019-03-10T12:17:44.689Z,38.40
2019-03-10T12:20:12.106Z,37.60
2019-03-10T12:22:38.315Z,37.20
2019-03-10T12:25:12.621Z,37.40
2019-03-10T12:27:38.836Z,37.90
2019-03-10T12:30:11.090Z,38.60
2019-03-10T12:32:37.318Z,34.80
2019-03-10T12:35:04.658Z,34.40
2019-03-10T12:37:30.962Z,40.20
2019-03-10T12:39:57.196Z,40.20
2019-03-10T12:42:23.418Z,40.70
2019-03-10T12:44:49.627Z,37.40
2019-03-10T12:47:15.933Z,39.60
2019-03-10T12:49:42.234Z,39.20
2019-03-10T12:52:08.517Z,36.70
2019-03-10T12:54:34.757Z,33.80
2019-03-10T12:57:00.963Z,32.80
2019-03-10T12:59:27.169Z,37.00
2019-03-10T13:01:53.495Z,37.00
2019-03-10T13:04:19.769Z,38.20
2019-03-10T13:06:46.081Z,34.90
2019-03-10T13:09:12.397Z,35.00
2019-03-10T13:11:38.666Z,35.50
2019-03-10T13:14:04.881Z,35.10
2019-03-10T13:16:31.161Z,34.90
2019-03-10T13:18:57.381Z,35.60
2019-03-10T13:21:25.985Z,36.10
2019-03-10T13:23:51.822Z,39.80
2019-03-10T13:26:18.125Z,39.10
2019-03-10T13:28:44.350Z,35.60
2019-03-10T13:31:10.589Z,39.20
2019-03-10T13:33:36.808Z,37.30
2019-03-10T13:36:03.118Z,34.00
2019-03-10T13:38:29.361Z,34.90
2019-03-10T13:40:55.566Z,35.00
2019-03-10T13:43:21.798Z,36.60
2019-03-10T13:45:48.037Z,38.00
2019-03-10T13:48:14.249Z,34.80
2019-03-10T13:50:41.457Z,35.40
2019-03-10T13:53:07.845Z,35.50
2019-03-10T13:55:34.065Z,33.30
2019-03-10T13:58:00.278Z,36.80
2019-03-10T14:00:26.813Z,38.80
2019-03-10T14:02:53.139Z,38.00
2019-03-10T14:05:20.644Z,37.30
2019-03-10T14:07:46.992Z,37.80
2019-03-10T14:10:13.601Z,38.70
2019-03-10T14:12:39.812Z,37.50
2019-03-10T14:15:11.893Z,37.60
2019-03-10T14:17:38.159Z,37.20
2019-03-10T14:20:07.433Z,37.40
2019-03-10T14:22:33.674Z,37.10
2019-03-10T14:24:59.978Z,37.40
2019-03-10T14:27:26.402Z,35.60
2019-03-10T14:29:52.736Z,33.80
2019-03-10T14:32:18.945Z,33.60
2019-03-10T14:34:45.157Z,35.10
2019-03-10T14:37:11.449Z,36.30
2019-03-10T14:39:37.665Z,37.70
2019-03-10T14:42:04.077Z,38.90
2019-03-10T14:44:30.325Z,35.70
2019-03-10T14:46:56.541Z,35.10
2019-03-10T14:49:23.749Z,35.90
2019-03-10T14:51:50.102Z,35.90
2019-03-10T14:54:16.385Z,36.70
2019-03-10T14:56:42.641Z,39.20
2019-03-10T14:59:08.849Z,37.10
2019-03-10T15:01:35.062Z,35.80
2019-03-10T15:04:01.317Z,35.90
2019-03-10T15:06:27.521Z,36.30
2019-03-10T15:08:53.738Z,36.40
2019-03-10T15:11:19.977Z,37.30
2019-03-10T15:13:46.191Z,36.60
2019-03-10T15:16:12.406Z,36.50
2019-03-10T15:18:38.961Z,37.70
2019-03-10T15:21:05.190Z,37.10
2019-03-10T15:23:31.497Z,37.80
2019-03-10T15:25:57.741Z,36.70
2019-03-10T15:28:23.973Z,37.70
2019-03-10T15:30:50.567Z,37.30
2019-03-10T15:33:17.053Z,36.60
2019-03-10T15:35:43.409Z,36.60
2019-03-10T15:38:09.769Z,36.00
2019-03-10T15:40:37.907Z,35.70
2019-03-10T15:43:04.205Z,36.00
2019-03-10T15:45:30.427Z,36.10
2019-03-10T15:47:56.757Z,36.20
2019-03-10T15:50:33.736Z,36.70
2019-03-10T15:52:59.977Z,37.50
2019-03-10T15:55:26.261Z,37.50
2019-03-10T15:57:52.469Z,41.00
2019-03-10T16:00:20.310Z,39.10
2019-03-10T16:02:46.608Z,41.40
2019-03-10T16:05:13.026Z,40.30
2019-03-10T16:07:39.345Z,41.40
2019-03-10T16:10:08.456Z,40.50
2019-03-10T16:12:34.665Z,40.70
2019-03-10T16:15:00.909Z,42.50
2019-03-10T16:17:27.129Z,40.70
2019-03-10T16:19:53.370Z,41.90
2019-03-10T16:22:19.718Z,42.70
2019-03-10T16:24:45.933Z,43.90
2019-03-10T16:27:12.141Z,43.40
2019-03-10T16:29:38.382Z,43.50
2019-03-10T16:32:04.601Z,43.00
2019-03-10T16:34:30.837Z,44.10
2019-03-10T16:36:57.082Z,43.40
2019-03-10T16:39:23.304Z,41.20
2019-03-10T16:41:49.513Z,41.90
2019-03-10T16:44:15.745Z,43.20
2019-03-10T16:46:42.338Z,42.70
2019-03-10T16:49:08.585Z,43.30
2019-03-10T16:51:34.949Z,41.80
2019-03-10T16:54:01.258Z,42.00
2019-03-10T16:56:30.994Z,41.80
2019-03-10T16:58:57.834Z,42.00
2019-03-10T17:01:24.056Z,42.40
2019-03-10T17:03:50.379Z,43.70
2019-03-10T17:06:16.773Z,44.30
2019-03-10T17:08:42.977Z,44.30
2019-03-10T17:11:09.198Z,43.80
2019-03-10T17:13:35.546Z,46.20
2019-03-10T17:16:02.257Z,46.70
2019-03-10T17:18:28.486Z,46.60
2019-03-10T17:20:54.816Z,46.60
2019-03-10T17:23:21.021Z,46.20
2019-03-10T17:25:47.233Z,47.90
2019-03-10T17:28:13.593Z,47.60
2019-03-10T17:30:39.885Z,47.50
2019-03-10T17:33:06.102Z,47.20
2019-03-10T17:35:32.346Z,48.30
2019-03-10T17:37:58.657Z,49.20
2019-03-10T17:40:24.873Z,50.80
2019-03-10T17:42:51.615Z,53.60
2019-03-10T17:45:19.564Z,50.70
2019-03-10T17:47:45.994Z,50.40
2019-03-10T17:50:15.117Z,49.20
2019-03-10T17:52:41.336Z,52.10
2019-03-10T17:55:10.153Z,55.10
2019-03-10T17:57:36.393Z,51.50
2019-03-10T18:00:06.209Z,53.50
2019-03-10T18:02:32.607Z,50.80
2019-03-10T18:04:59.014Z,49.20
2019-03-10T18:07:25.225Z,50.10
2019-03-10T18:09:51.438Z,51.60
2019-03-10T18:12:17.761Z,51.90
2019-03-10T18:14:43.965Z,52.10
2019-03-10T18:17:10.181Z,50.70
2019-03-10T18:19:36.419Z,51.30
2019-03-10T18:22:02.917Z,49.10
2019-03-10T18:24:29.225Z,47.60
2019-03-10T18:26:55.473Z,47.40
2019-03-10T18:29:21.687Z,47.00
2019-03-10T18:31:47.994Z,48.00
2019-03-10T18:34:14.298Z,50.00
2019-03-10T18:36:40.519Z,50.30
2019-03-10T18:39:07.691Z,51.50
2019-03-10T18:41:34.782Z,54.00
2019-03-10T18:44:00.990Z,56.40
2019-03-10T18:46:27.189Z,53.80
2019-03-10T18:48:54.613Z,57.00
2019-03-10T18:51:20.843Z,54.80
2019-03-10T18:53:47.689Z,53.90
2019-03-10T18:56:13.978Z,53.70
2019-03-10T18:58:40.191Z,56.00
2019-03-10T19:01:07.133Z,53.90
2019-03-10T19:03:33.616Z,55.30
2019-03-10T19:05:59.909Z,59.60
2019-03-10T19:08:27.175Z,58.70
2019-03-10T19:10:54.691Z,59.00
2019-03-10T19:13:21.062Z,62.80
2019-03-10T19:15:47.272Z,62.70
2019-03-10T19:18:13.517Z,63.60
2019-03-10T19:20:39.739Z,57.50
2019-03-10T19:23:05.989Z,55.30
2019-03-10T19:25:32.232Z,56.00
2019-03-10T19:27:58.451Z,61.50
2019-03-10T19:30:24.762Z,57.20
2019-03-10T19:32:51.107Z,56.00
2019-03-10T19:35:18.717Z,55.60
2019-03-10T19:37:44.998Z,57.10
2019-03-10T19:40:18.566Z,61.80
2019-03-10T19:42:44.862Z,58.50
2019-03-10T19:45:21.201Z,58.10
2019-03-10T19:47:47.508Z,58.40
2019-03-10T19:50:18.021Z,58.70
2019-03-10T19:52:44.280Z,63.00
2019-03-10T19:55:12.985Z,59.40
2019-03-10T19:57:39.203Z,59.10
2019-03-10T20:00:14.225Z,62.40
2019-03-10T20:02:40.438Z,61.40
2019-03-10T20:05:07.045Z,63.20
2019-03-10T20:07:33.497Z,62.60
2019-03-10T20:09:59.813Z,63.30
2019-03-10T20:12:26.043Z,64.50
2019-03-10T20:14:52.381Z,64.60
2019-03-10T20:17:18.602Z,64.50
2019-03-10T20:19:44.910Z,64.30
2019-03-10T20:22:11.149Z,64.10
2019-03-10T20:24:37.375Z,64.90
2019-03-10T20:27:04.697Z,66.00
2019-03-10T20:29:30.939Z,68.40
2019-03-10T20:31:57.205Z,67.40
2019-03-10T20:34:23.463Z,67.10
2019-03-10T20:36:52.113Z,66.30
2019-03-10T20:39:17.797Z,65.60
2019-03-10T20:41:44.009Z,67.30
2019-03-10T20:44:10.365Z,63.70
2019-03-10T20:46:36.668Z,63.90
2019-03-10T20:49:02.888Z,65.10
2019-03-10T20:51:29.125Z,66.30
2019-03-10T20:53:55.342Z,66.30
2019-03-10T20:56:21.657Z,65.20
2019-03-10T20:58:48.001Z,64.70
2019-03-10T21:01:14.216Z,69.60
2019-03-10T21:03:40.526Z,67.40
2019-03-10T21:06:06.766Z,67.30
2019-03-10T21:08:32.973Z,69.10
2019-03-10T21:10:59.190Z,68.60
2019-03-10T21:13:25.425Z,68.10
2019-03-10T21:15:51.633Z,69.70
2019-03-10T21:18:17.862Z,69.50
2019-03-10T21:20:44.257Z,69.60
2019-03-10T21:23:10.485Z,69.40
2019-03-10T21:25:36.792Z,69.70
2019-03-10T21:28:03.025Z,71.10
2019-03-10T21:30:33.022Z,69.70
2019-03-10T21:33:00.329Z,70.30
2019-03-10T21:35:26.693Z,70.20
2019-03-10T21:37:52.996Z,69.20
2019-03-10T21:40:22.409Z,69.30
2019-03-10T21:42:48.671Z,69.50
2019-03-10T21:45:15.112Z,69.60
2019-03-10T21:47:41.501Z,69.60
2019-03-10T21:50:11.157Z,69.40
2019-03-10T21:52:37.578Z,69.50
2019-03-10T21:55:06.415Z,69.30
2019-03-10T21:57:35.019Z,69.80
2019-03-10T22:00:00.923Z,70.70
2019-03-10T22:02:27.129Z,70.70
2019-03-10T22:04:53.364Z,72.30
2019-03-10T22:07:19.577Z,70.70
2019-03-10T22:09:45.789Z,71.80
2019-03-10T22:12:12.033Z,71.20
2019-03-10T22:14:38.250Z,70.50
2019-03-10T22:17:04.465Z,71.40
2019-03-10T22:19:30.703Z,72.60
2019-03-10T22:21:57.926Z,72.40
2019-03-10T22:24:24.148Z,73.80
2019-03-10T22:26:50.389Z,73.80
2019-03-10T22:29:16.596Z,74.00
2019-03-10T22:31:42.816Z,74.20
2019-03-10T22:34:09.127Z,73.70
2019-03-10T22:36:35.350Z,73.40
2019-03-10T22:39:01.661Z,73.70
2019-03-10T22:41:29.802Z,73.80
2019-03-10T22:43:56.013Z,74.30
2019-03-10T22:46:22.216Z,75.00
2019-03-10T22:48:48.453Z,74.90
2019-03-10T22:51:14.771Z,75.00
2019-03-10T22:53:41.100Z,74.90
2019-03-10T22:56:07.344Z,74.50
2019-03-10T22:58:33.553Z,74.80
2019-03-10T23:00:59.873Z,74.90
2019-03-10T23:03:26.426Z,75.00
2019-03-10T23:05:52.630Z,75.30
2019-03-10T23:08:18.828Z,75.90
2019-03-10T23:10:45.072Z,76.10
2019-03-10T23:13:11.282Z,76.10
2019-03-10T23:15:37.481Z,75.90
2019-03-10T23:18:04.105Z,75.50
2019-03-10T23:20:30.408Z,75.40
2019-03-10T23:22:56.620Z,75.60
2019-03-10T23:25:22.868Z,75.30
2019-03-10T23:27:49.188Z,75.80
2019-03-10T23:30:16.603Z,75.10
2019-03-10T23:32:42.946Z,75.30
2019-03-10T23:35:09.246Z,75.10
2019-03-10T23:37:35.456Z,75.00
2019-03-10T23:40:04.177Z,75.00
2019-03-10T23:42:30.393Z,75.00
2019-03-10T23:44:56.609Z,75.00
2019-03-10T23:47:22.949Z,75.30
2019-03-10T23:49:49.253Z,75.30
2019-03-10T23:52:15.490Z,75.30
2019-03-10T23:54:41.813Z,75.40
2019-03-10T23:57:08.050Z,76.10
2019-03-10T23:59:34.340Z,76.10
